Погода Джиблахна 2 недели

Ибб, Йемен

27 февраля-10 марта
  • 27февраля
    Сегодня
    +13°
    +29°
    Облачно с прояснениями
    ВремяПогодаТемператураВлажностьДавлениеВетер, м/сВероятность осадков
    00:00Ясно и безоблачно+16°C84 %610 мм0.4 м/с2 %
    03:00Облачно с прояснениями+16°C80 %610 мм1.2 м/с7 %
    06:00Облачно с прояснениями+15°C86 %610 мм1.0 м/с6 %
    09:00Облачно с прояснениями+24°C44 %615 мм1.4 м/с4 %
    12:00Облачно с прояснениями+28°C40 %616 мм2.1 м/с13 %
    15:00Облачно с прояснениями+26°C45 %613 мм2.5 м/с24 %
    18:00Облачно с прояснениями+22°C67 %613 мм1.4 м/с17 %
    21:00Облачно с прояснениями+17°C85 %612 мм1.2 м/с2 %
  • 28февраля
    Среда
    +14°
    +29°
    Практически безоблачно
    ВремяПогодаТемператураВлажностьДавлениеВетер, м/сВероятность осадков
    00:00Облачно с прояснениями+15°C89 %611 мм0.6 м/с2 %
    03:00Облачно с прояснениями+15°C85 %610 мм0.7 м/с2 %
    06:00Практически безоблачно+14°C86 %610 мм0.4 м/с10 %
    09:00Практически безоблачно+22°C56 %614 мм0.5 м/с12 %
    12:00Небольшая облачность и лёгкий дождик+29°C39 %616 мм2.1 м/с22 %
    15:00Практически безоблачно+26°C41 %613 мм2.8 м/с28 %
    18:00Ясно и безоблачно+23°C64 %613 мм1.4 м/с24 %
    21:00Ясно и безоблачно+17°C86 %611 мм1.0 м/с2 %
  • 29февраля
    Четверг
    +13°
    +29°
    Облачно с прояснениями
    ВремяПогодаТемператураВлажностьДавлениеВетер, м/сВероятность осадков
    00:00Ясно и безоблачно+16°C76 %610 мм0.7 м/с2 %
    03:00Ясно и безоблачно+16°C55 %610 мм0.7 м/с2 %
    06:00Ясно и безоблачно+14°C57 %609 мм0.9 м/с2 %
    09:00Ясно и безоблачно+24°C31 %615 мм1.6 м/с2 %
    12:00Небольшая облачность+29°C30 %616 мм2.0 м/с22 %
    15:00Облачно с прояснениями+26°C42 %613 мм2.1 м/с47 %
    18:00Ясно и безоблачно+23°C62 %613 мм1.1 м/с35 %
    21:00Ясно и безоблачно+18°C80 %612 мм1.2 м/с2 %
  • 01марта
    Пятница
    +13°
    +31°
    Небольшая облачность
    ВремяПогодаТемператураВлажностьДавлениеВетер, м/сВероятность осадков
    00:00Ясно и безоблачно+16°C83 %611 мм1.0 м/с2 %
    03:00Ясно и безоблачно+15°C80 %610 мм1.2 м/с2 %
    06:00Ясно и безоблачно+14°C87 %610 мм1.5 м/с2 %
    09:00Ясно и безоблачно+23°C41 %615 мм2.6 м/с2 %
    12:00Ясно и безоблачно+30°C28 %617 мм3.8 м/с16 %
    15:00Небольшая облачность+26°C40 %614 мм3.9 м/с34 %
    18:00Небольшая облачность+24°C62 %615 мм2.5 м/с30 %
    21:00Ясно и безоблачно+18°C84 %614 мм2.1 м/с2 %
  • 02марта
    Суббота
    +15°
    +31°
    Облачно с прояснениями
    ВремяПогодаТемператураВлажностьДавлениеВетер, м/сВероятность осадков
    00:00Небольшая облачность+16°C88 %612 мм1.3 м/с2 %
    03:00Практически безоблачно+14°C68 %610 мм1.6 м/с2 %
    06:00Ясно и безоблачно+13°C57 %610 мм1.7 м/с2 %
    09:00Небольшая облачность+23°C34 %616 мм3.1 м/с2 %
    12:00Ясно и безоблачно+30°C35 %617 мм3.6 м/с6 %
    15:00Облачно с прояснениями+26°C43 %614 мм3.3 м/с28 %
    18:00Облачно с прояснениями+24°C60 %615 мм2.5 м/с24 %
    21:00Практически безоблачно+18°C76 %613 мм1.3 м/с3 %
Мы используем cookies
Соглашаюсь